Nakkehoved, Denmark

9:17 PM CET on December 18, 2014 (GMT +0100)
IHOVEDST4 | Change Station
CLOSE
Current Station
Personal Weather Station
Location: Gilleleje, HOVEDSTADEN
Elevation: 20 ft
Nearby Weather Stations

Elev 20 ft 56.12 °N, 12.31 °E | Updated 3 minutes ago

Heavy Drizzle
Heavy Drizzle
49.2 °F
Feels Like 49 °F
N
0.0
Wind Variable Wind from WSW
Gusts 0.0 mph

Today
High -- | Low -- °F
--% Chance of Precip.
Yesterday
High -- | Low -- °F
Precip. -- in
8:39 AM 3:35 PM
Waning Crescent, 12% visible
Pressure 29.33 in
Visibility 1.5 miles
Clouds Overcast 200 ft
Windchill 49 °F
Dew Point 49 °F
Humidity 98%
Rainfall 0.30 in
Snow Depth Not available.
UV 0 out of 12
Pollen Not available.
Air Quality Not available.
Flu Activity Not available.
METAR ESTA 181950Z 22012KT 2400 +DZ OVC002 09/08 Q0993

More Conditions Fewer Conditions

Pressure 29.33 in
Visibility 1.5 miles
Clouds Overcast 200 ft
Windchill 49 °F
Dew Point 49 °F
Humidity 98%
Rainfall 0.30 in
Snow Depth Not available.
UV 0 out of 12
Pollen Not available.
Air Quality Not available.
Flu Activity Not available.
METAR ESTA 181950Z 22012KT 2400 +DZ OVC002 09/08 Q0993

More Conditions Fewer Conditions

10-Day Weather Forecast

Almanac

Astronomy

Dec. 18, 2014 Rise Set
Actual Time
Civil Twilight
Nautical Twilight
Astronomical Twilight
Moon
Length of Visible Light
Length of Day
Tomorrow will be .
, % of the Moon is Illuminated

Today's Extremes

Country Highs Country Lows

Community

WunderPhotos

Upload Photos

1,778,992 photos uploaded!

WunderBlogs® & News

Nearby

Air Quality

  Air Quality AQ Index Pollutant
Not available.

Snow Depth

Station Depth Elevation

Earthquake Activity

City Distance Mag. Time & Date
Minimum magnitude displayed is 2.5.

Coastal Water Temperatures

Place Temperature

Nearby Weather Stations